createdAt,value
2022-09-21T00:00:51.101Z,3.78
2022-09-21T00:03:20.864Z,4.78
2022-09-21T00:05:51.292Z,4.43
2022-09-21T00:08:21.262Z,4.93
2022-09-21T00:10:52.462Z,4.30
2022-09-21T00:13:22.792Z,3.97
2022-09-21T00:15:53.511Z,4.30
2022-09-21T00:18:23.486Z,4.85
2022-09-21T00:20:54.201Z,4.60
2022-09-21T00:23:25.300Z,4.13
2022-09-21T00:25:55.305Z,4.05
2022-09-21T00:28:25.413Z,4.00
2022-09-21T00:30:55.886Z,5.93
2022-09-21T00:33:26.313Z,5.85
2022-09-21T00:35:57.505Z,3.70
2022-09-21T00:38:27.503Z,3.80
2022-09-21T00:40:57.207Z,4.20
2022-09-21T00:43:27.020Z,3.53
2022-09-21T00:46:04.393Z,3.80
2022-09-21T00:48:34.636Z,2.85
2022-09-21T00:51:05.999Z,1.73
2022-09-21T00:53:35.799Z,1.80
2022-09-21T00:56:05.671Z,1.33
2022-09-21T00:58:42.070Z,1.50
2022-09-21T01:01:12.011Z,1.88
2022-09-21T01:03:44.981Z,1.38
2022-09-21T01:06:15.849Z,1.27
2022-09-21T01:08:45.678Z,1.40
2022-09-21T01:11:35.979Z,1.63
2022-09-21T01:14:07.767Z,1.70
2022-09-21T01:16:43.779Z,1.52
2022-09-21T01:19:18.680Z,1.50
2022-09-21T01:21:51.832Z,1.15
2022-09-21T01:24:44.800Z,2.10
2022-09-21T01:27:20.789Z,1.95
2022-09-21T01:29:53.630Z,1.05
2022-09-21T01:32:23.942Z,0.90
2022-09-21T01:35:04.867Z,1.05
2022-09-21T01:37:42.621Z,1.02
2022-09-21T01:40:35.453Z,0.93
2022-09-21T01:43:06.227Z,1.10
2022-09-21T01:45:40.346Z,0.95
2022-09-21T01:48:10.213Z,2.75
2022-09-21T01:50:42.324Z,1.60
2022-09-21T01:53:22.914Z,1.50
2022-09-21T01:55:56.613Z,1.10
2022-09-21T01:58:36.323Z,1.25
2022-09-21T02:01:07.029Z,1.50
2022-09-21T02:03:37.011Z,1.92
2022-09-21T02:06:08.597Z,1.73
2022-09-21T02:08:38.544Z,1.40
2022-09-21T02:11:08.906Z,1.50
2022-09-21T02:16:35.470Z,1.75
2022-09-21T02:19:05.249Z,1.85
2022-09-21T02:22:02.154Z,1.52
2022-09-21T02:24:35.103Z,2.03
2022-09-21T02:27:19.780Z,1.83
2022-09-21T02:29:54.454Z,1.55
2022-09-21T02:32:52.803Z,1.80
2022-09-21T02:35:33.097Z,1.20
2022-09-21T02:38:19.381Z,1.33
2022-09-21T02:40:56.861Z,1.42
2022-09-21T02:43:37.080Z,2.10
2022-09-21T02:46:18.168Z,1.38
2022-09-21T02:48:54.973Z,1.40
2022-09-21T02:51:40.202Z,1.83
2022-09-21T02:54:10.590Z,2.03
2022-09-21T02:56:40.532Z,1.45
2022-09-21T02:59:10.299Z,1.17
2022-09-21T03:01:40.864Z,1.65
2022-09-21T03:04:10.639Z,1.17
2022-09-21T03:06:40.690Z,1.35
2022-09-21T03:09:13.443Z,1.55
2022-09-21T03:11:48.053Z,1.55
2022-09-21T03:14:18.478Z,1.17
2022-09-21T03:16:51.484Z,1.20
2022-09-21T03:19:21.883Z,0.90
2022-09-21T03:21:51.779Z,1.08
2022-09-21T03:24:41.028Z,1.08
2022-09-21T03:27:10.967Z,1.00
2022-09-21T03:29:40.660Z,1.35
2022-09-21T03:32:14.087Z,1.10
2022-09-21T03:34:46.987Z,1.90
2022-09-21T03:37:20.921Z,1.27
2022-09-21T03:39:50.744Z,1.20
2022-09-21T03:42:20.694Z,1.30
2022-09-21T03:44:50.677Z,2.00
2022-09-21T03:47:25.276Z,1.80
2022-09-21T03:49:55.406Z,1.58
2022-09-21T03:52:25.176Z,1.40
2022-09-21T03:54:56.659Z,1.25
2022-09-21T03:57:26.428Z,1.77
2022-09-21T03:59:56.173Z,1.65
2022-09-21T04:02:25.996Z,1.40
2022-09-21T04:04:55.778Z,1.50
2022-09-21T04:07:25.650Z,1.70
2022-09-21T04:09:55.418Z,1.35
2022-09-21T04:12:29.568Z,1.60
2022-09-21T04:14:59.406Z,2.47
2022-09-21T04:17:29.190Z,2.35
2022-09-21T04:20:00.158Z,2.35
2022-09-21T04:22:30.692Z,1.75
2022-09-21T04:25:01.356Z,2.30
2022-09-21T04:27:31.124Z,2.10
2022-09-21T04:30:01.287Z,2.13
2022-09-21T04:32:31.440Z,2.22
2022-09-21T04:35:02.510Z,1.95
2022-09-21T04:37:32.269Z,2.00
2022-09-21T04:40:02.407Z,1.90
2022-09-21T04:42:32.883Z,1.92
2022-09-21T04:45:02.835Z,1.65
2022-09-21T04:47:33.458Z,2.10
2022-09-21T04:50:03.216Z,1.83
2022-09-21T04:52:34.739Z,2.10
2022-09-21T04:55:04.646Z,2.13
2022-09-21T04:57:35.578Z,1.40
2022-09-21T05:00:07.256Z,1.48
2022-09-21T05:02:41.434Z,1.63
2022-09-21T05:05:11.344Z,0.90
2022-09-21T05:07:41.585Z,0.60
2022-09-21T05:10:12.758Z,0.90
2022-09-21T05:12:44.855Z,0.95
2022-09-21T05:15:16.823Z,1.00
2022-09-21T05:17:49.209Z,1.15
2022-09-21T05:20:19.479Z,1.08
2022-09-21T05:22:50.274Z,1.52
2022-09-21T05:25:22.139Z,1.48
2022-09-21T05:27:51.948Z,1.40
2022-09-21T05:30:22.130Z,1.20
2022-09-21T05:32:52.402Z,1.50
2022-09-21T05:35:27.892Z,1.52
2022-09-21T05:38:04.711Z,1.85
2022-09-21T05:40:34.754Z,1.60
2022-09-21T05:43:04.965Z,1.67
2022-09-21T05:45:34.870Z,1.92
2022-09-21T05:48:17.427Z,2.63
2022-09-21T05:50:56.827Z,2.50
2022-09-21T05:53:49.730Z,1.80
2022-09-21T05:56:38.036Z,1.90
2022-09-21T05:59:11.346Z,1.85
2022-09-21T06:02:05.830Z,1.52
2022-09-21T06:04:35.802Z,1.30
2022-09-21T06:07:06.621Z,0.85
2022-09-21T06:09:40.036Z,1.20
2022-09-21T06:12:12.896Z,1.20
2022-09-21T06:14:43.901Z,0.80
2022-09-21T06:17:14.822Z,0.60
2022-09-21T06:19:50.925Z,0.55
2022-09-21T06:22:23.458Z,0.60
2022-09-21T06:24:53.575Z,0.50
2022-09-21T06:27:23.283Z,0.50
2022-09-21T06:29:54.614Z,0.70
2022-09-21T06:32:26.007Z,0.52
2022-09-21T06:34:56.486Z,3.22
2022-09-21T06:37:26.319Z,4.05
2022-09-21T06:39:55.976Z,3.00
2022-09-21T06:42:25.786Z,3.92
2022-09-21T06:44:57.171Z,3.65
2022-09-21T06:47:27.067Z,3.20
2022-09-21T06:49:57.285Z,4.15
2022-09-21T06:52:27.172Z,3.00
2022-09-21T06:54:56.941Z,3.63
2022-09-21T06:57:27.052Z,2.72
2022-09-21T06:59:57.132Z,2.95
2022-09-21T07:02:29.465Z,2.55
2022-09-21T07:05:00.875Z,2.40
2022-09-21T07:07:33.699Z,2.55
2022-09-21T07:10:07.202Z,2.03
2022-09-21T07:12:37.937Z,2.17
2022-09-21T07:15:08.244Z,1.42
2022-09-21T07:17:40.144Z,1.00
2022-09-21T07:20:10.386Z,0.95
2022-09-21T07:22:40.246Z,0.63
2022-09-21T07:25:11.968Z,0.70
2022-09-21T07:27:42.338Z,0.73
2022-09-21T07:30:12.463Z,0.60
2022-09-21T07:32:42.628Z,0.57
2022-09-21T07:35:13.435Z,0.50
2022-09-21T07:37:43.408Z,0.80
2022-09-21T07:40:16.536Z,0.60
2022-09-21T07:42:46.995Z,0.80
2022-09-21T07:45:17.123Z,0.80
2022-09-21T07:47:47.736Z,1.13
2022-09-21T07:50:17.638Z,0.70
2022-09-21T07:52:47.371Z,0.80
2022-09-21T07:55:17.822Z,0.85
2022-09-21T07:58:06.123Z,0.90
2022-09-21T08:00:37.003Z,1.35
2022-09-21T08:03:07.320Z,0.98
2022-09-21T08:05:37.429Z,0.90
2022-09-21T08:08:07.168Z,1.25
2022-09-21T08:10:37.630Z,1.00
2022-09-21T08:13:07.362Z,1.58
2022-09-21T08:15:49.431Z,1.35
2022-09-21T08:18:20.220Z,3.85
2022-09-21T08:20:56.142Z,1.10
2022-09-21T08:23:27.401Z,1.77
2022-09-21T08:26:08.188Z,1.80
2022-09-21T08:28:38.075Z,1.80
2022-09-21T08:31:09.753Z,1.73
2022-09-21T08:33:43.843Z,1.90
2022-09-21T08:36:13.974Z,1.60
2022-09-21T08:38:46.659Z,1.20
2022-09-21T08:41:27.205Z,1.38
2022-09-21T08:43:58.355Z,1.92
2022-09-21T08:46:31.653Z,1.30
2022-09-21T08:49:03.433Z,1.60
2022-09-21T08:51:33.594Z,2.05
2022-09-21T08:54:05.024Z,2.35
2022-09-21T08:57:00.511Z,1.80
2022-09-21T08:59:26.014Z,1.85
2022-09-21T09:01:56.354Z,2.28
2022-09-21T09:04:55.595Z,2.03
2022-09-21T09:07:34.592Z,2.97
2022-09-21T09:12:35.521Z,1.85
2022-09-21T09:15:17.360Z,2.05
2022-09-21T09:17:56.290Z,2.63
2022-09-21T09:20:45.460Z,2.17
2022-09-21T09:23:27.619Z,1.88
2022-09-21T09:25:59.497Z,1.98
2022-09-21T09:28:29.483Z,2.33
2022-09-21T09:31:12.944Z,3.05
2022-09-21T09:34:03.607Z,2.65
2022-09-21T09:36:57.167Z,2.47
2022-09-21T09:39:25.015Z,3.35
2022-09-21T09:42:04.363Z,3.28
2022-09-21T09:44:34.131Z,3.58
2022-09-21T09:47:22.072Z,3.28
2022-09-21T09:50:10.177Z,3.13
2022-09-21T09:52:40.212Z,3.47
2022-09-21T09:55:32.032Z,3.40
2022-09-21T09:58:02.017Z,3.47
2022-09-21T10:00:32.784Z,3.00
2022-09-21T10:03:02.682Z,4.28
2022-09-21T10:05:32.534Z,4.47
2022-09-21T10:08:02.459Z,3.90
2022-09-21T10:10:35.305Z,4.03
2022-09-21T10:13:26.132Z,3.97
2022-09-21T10:15:57.444Z,6.25
2022-09-21T10:18:27.393Z,5.18
2022-09-21T10:20:57.929Z,5.95
2022-09-21T10:23:27.875Z,5.50
2022-09-21T10:26:02.023Z,4.72
2022-09-21T10:28:31.861Z,4.00
2022-09-21T10:31:12.542Z,4.28
2022-09-21T10:33:53.715Z,4.07
2022-09-21T10:36:30.411Z,5.10
2022-09-21T10:39:12.316Z,4.40
2022-09-21T10:41:43.171Z,5.93
2022-09-21T10:44:18.531Z,5.07
2022-09-21T10:46:48.887Z,5.47
2022-09-21T10:49:23.260Z,4.95
2022-09-21T10:51:54.366Z,5.68
2022-09-21T10:54:49.749Z,4.20
2022-09-21T10:57:19.849Z,4.65
2022-09-21T10:59:49.576Z,5.93
2022-09-21T11:02:40.874Z,5.22
2022-09-21T11:05:11.141Z,4.80
2022-09-21T11:08:02.178Z,4.18
2022-09-21T11:10:47.453Z,4.70
2022-09-21T11:13:20.322Z,5.22
2022-09-21T11:15:58.559Z,5.38
2022-09-21T11:18:28.548Z,5.37
2022-09-21T11:21:00.361Z,5.85
2022-09-21T11:23:48.482Z,4.75
2022-09-21T11:26:36.422Z,9.57
2022-09-21T11:29:20.543Z,10.05
2022-09-21T11:31:50.469Z,6.80
2022-09-21T11:34:39.392Z,4.95
2022-09-21T11:37:14.043Z,6.13
2022-09-21T11:40:02.635Z,4.78
2022-09-21T11:42:32.427Z,4.82
2022-09-21T11:45:06.283Z,5.15
2022-09-21T11:47:42.033Z,4.90
2022-09-21T11:50:30.321Z,5.07
2022-09-21T11:55:40.161Z,5.85
2022-09-21T11:58:11.640Z,5.55
2022-09-21T12:00:55.076Z,5.57
2022-09-21T12:03:30.542Z,5.57
2022-09-21T12:06:14.365Z,6.30
2022-09-21T12:08:56.628Z,5.72
2022-09-21T12:11:53.951Z,5.13
2022-09-21T12:14:34.932Z,5.95
2022-09-21T12:17:23.074Z,5.38
2022-09-21T12:19:58.789Z,4.90
2022-09-21T12:22:32.556Z,4.88
2022-09-21T12:25:03.551Z,5.20
2022-09-21T12:27:40.968Z,4.10
2022-09-21T12:30:15.623Z,4.05
2022-09-21T12:32:55.560Z,4.03
2022-09-21T12:35:44.085Z,3.80
2022-09-21T12:38:14.148Z,4.68
2022-09-21T12:40:49.411Z,3.25
2022-09-21T12:43:27.866Z,3.25
2022-09-21T12:45:59.583Z,4.25
2022-09-21T12:48:29.679Z,3.15
2022-09-21T12:51:05.704Z,2.58
2022-09-21T12:53:40.389Z,1.98
2022-09-21T12:56:14.396Z,1.70
2022-09-21T12:58:45.436Z,1.33
2022-09-21T13:01:15.693Z,1.15
2022-09-21T13:04:04.424Z,1.20
2022-09-21T13:06:34.408Z,1.02
2022-09-21T13:09:07.377Z,1.00
2022-09-21T13:11:40.535Z,0.88
2022-09-21T13:14:10.400Z,1.10
2022-09-21T13:16:41.452Z,1.00
2022-09-21T13:19:17.357Z,1.00
2022-09-21T13:21:47.220Z,2.33
2022-09-21T13:24:28.200Z,1.27
2022-09-21T13:27:06.891Z,1.40
2022-09-21T13:29:39.181Z,1.67
2022-09-21T13:32:17.107Z,1.25
2022-09-21T13:34:52.490Z,1.58
2022-09-21T13:37:29.634Z,1.55
2022-09-21T13:40:05.632Z,1.42
2022-09-21T13:42:36.133Z,1.30
2022-09-21T13:45:06.504Z,1.48
2022-09-21T13:47:38.471Z,0.90
2022-09-21T13:50:16.263Z,0.95
2022-09-21T13:52:46.846Z,0.90
2022-09-21T13:55:35.285Z,0.88
2022-09-21T13:58:12.944Z,0.73
2022-09-21T14:01:35.331Z,0.75
2022-09-21T14:04:07.713Z,0.75
2022-09-21T14:06:38.069Z,0.80
2022-09-21T14:09:11.313Z,0.82
2022-09-21T14:11:41.466Z,0.70
2022-09-21T14:14:17.095Z,1.10
2022-09-21T14:16:51.210Z,1.10
2022-09-21T14:19:24.670Z,1.17
2022-09-21T14:22:09.783Z,1.15
2022-09-21T14:24:46.599Z,1.40
2022-09-21T14:27:21.699Z,1.30
2022-09-21T14:29:55.216Z,1.60
2022-09-21T14:33:44.996Z,1.63
2022-09-21T14:36:16.058Z,1.75
2022-09-21T14:39:04.950Z,1.83
2022-09-21T14:41:36.052Z,2.17
2022-09-21T14:44:10.860Z,2.13
2022-09-21T14:46:56.432Z,2.58
2022-09-21T14:49:34.447Z,2.22
2022-09-21T14:52:31.927Z,2.30
2022-09-21T14:55:04.119Z,1.70
2022-09-21T14:57:39.212Z,1.35
2022-09-21T15:00:28.753Z,1.00
2022-09-21T15:03:07.714Z,1.20
2022-09-21T15:05:42.779Z,0.75
2022-09-21T15:08:53.246Z,2.35
2022-09-21T15:11:32.146Z,0.73
2022-09-21T15:14:21.579Z,0.68
2022-09-21T15:16:56.187Z,0.95
2022-09-21T15:19:26.223Z,0.85
2022-09-21T15:21:57.097Z,0.77
2022-09-21T15:24:36.093Z,1.20
2022-09-21T15:27:17.500Z,0.60
2022-09-21T15:29:51.023Z,0.60
2022-09-21T15:32:30.182Z,0.93
2022-09-21T15:37:32.570Z,1.05
2022-09-21T15:40:09.629Z,0.70
2022-09-21T15:42:42.601Z,0.90
2022-09-21T15:45:19.697Z,0.88
2022-09-21T15:47:50.510Z,0.63
2022-09-21T15:50:21.623Z,0.80
2022-09-21T15:52:57.557Z,1.00
2022-09-21T15:55:30.912Z,0.70
2022-09-21T15:58:03.474Z,0.80
2022-09-21T16:00:40.279Z,0.80
2022-09-21T16:03:24.245Z,0.70
2022-09-21T16:05:56.096Z,0.60
2022-09-21T16:08:31.892Z,0.70
2022-09-21T16:11:15.305Z,1.02
2022-09-21T16:14:06.607Z,1.25
2022-09-21T16:16:56.110Z,1.27
2022-09-21T16:19:38.856Z,0.90
2022-09-21T16:22:08.781Z,1.20
2022-09-21T16:24:39.073Z,0.85
2022-09-21T16:27:08.828Z,0.93
2022-09-21T16:29:44.400Z,1.20
2022-09-21T16:32:34.152Z,0.93
2022-09-21T16:35:22.338Z,1.15
2022-09-21T16:37:53.425Z,0.82
2022-09-21T16:40:23.162Z,1.05
2022-09-21T16:42:52.944Z,2.03
2022-09-21T16:45:32.760Z,0.80
2022-09-21T16:48:04.095Z,1.05
2022-09-21T16:50:34.059Z,1.10
2022-09-21T16:53:03.972Z,1.25
2022-09-21T16:55:35.992Z,1.05
2022-09-21T16:58:05.695Z,0.90
2022-09-21T17:00:43.955Z,1.00
2022-09-21T17:03:15.826Z,1.00
2022-09-21T17:05:45.751Z,1.02
2022-09-21T17:08:16.820Z,0.77
2022-09-21T17:10:48.088Z,0.98
2022-09-21T17:13:18.690Z,1.10
2022-09-21T17:15:48.971Z,1.52
2022-09-21T17:18:18.701Z,0.70
2022-09-21T17:20:48.857Z,0.90
2022-09-21T17:23:18.685Z,1.77
2022-09-21T17:25:48.659Z,1.20
2022-09-21T17:28:22.433Z,1.10
2022-09-21T17:30:53.092Z,0.93
2022-09-21T17:33:25.331Z,1.50
2022-09-21T17:35:56.604Z,1.17
2022-09-21T17:38:26.418Z,1.00
2022-09-21T17:40:56.688Z,1.23
2022-09-21T17:43:49.239Z,1.45
2022-09-21T17:46:24.653Z,1.30
2022-09-21T17:48:54.808Z,1.15
2022-09-21T17:51:43.124Z,1.45
2022-09-21T17:54:13.151Z,1.07
2022-09-21T17:56:46.078Z,1.13
2022-09-21T17:59:29.408Z,1.48
2022-09-21T18:02:01.728Z,1.30
2022-09-21T18:04:36.374Z,1.58
2022-09-21T18:07:06.246Z,1.20
2022-09-21T18:09:36.430Z,1.65
2022-09-21T18:12:09.058Z,1.35
2022-09-21T18:15:01.757Z,1.60
2022-09-21T18:17:46.876Z,0.90
2022-09-21T18:20:36.712Z,0.85
2022-09-21T18:23:15.586Z,0.88
2022-09-21T18:25:51.750Z,1.00
2022-09-21T18:28:37.842Z,0.77
2022-09-21T18:31:16.435Z,1.35
2022-09-21T18:33:58.368Z,1.40
2022-09-21T18:36:46.265Z,0.93
2022-09-21T18:39:35.452Z,1.55
2022-09-21T18:44:37.786Z,1.50
2022-09-21T18:47:17.247Z,1.65
2022-09-21T18:49:47.202Z,1.17
2022-09-21T18:52:28.922Z,1.45
2022-09-21T18:54:58.997Z,1.30
2022-09-21T18:57:33.584Z,0.90
2022-09-21T19:00:03.439Z,1.73
2022-09-21T19:02:33.280Z,2.75
2022-09-21T19:05:05.174Z,1.63
2022-09-21T19:07:40.124Z,1.35
2022-09-21T19:10:10.254Z,1.33
2022-09-21T19:12:43.103Z,1.05
2022-09-21T19:15:16.132Z,1.27
2022-09-21T19:18:06.424Z,0.90
2022-09-21T19:20:55.278Z,1.33
2022-09-21T19:23:47.916Z,1.30
2022-09-21T19:26:26.199Z,1.60
2022-09-21T19:29:02.878Z,1.50
2022-09-21T19:31:34.420Z,1.40
2022-09-21T19:34:08.494Z,1.00
2022-09-21T19:36:38.185Z,1.40
2022-09-21T19:39:08.027Z,1.20
2022-09-21T19:41:47.363Z,0.73
2022-09-21T19:44:35.923Z,1.00
2022-09-21T19:47:24.265Z,1.30
2022-09-21T19:49:57.704Z,0.88
2022-09-21T19:52:37.696Z,0.90
2022-09-21T19:55:27.460Z,1.20
2022-09-21T19:58:15.432Z,2.30
2022-09-21T20:00:45.119Z,1.05
2022-09-21T20:03:15.440Z,1.08
2022-09-21T20:06:23.677Z,0.90
2022-09-21T20:08:53.373Z,1.67
2022-09-21T20:11:28.100Z,1.00
2022-09-21T20:14:15.973Z,1.00
2022-09-21T20:16:50.298Z,1.30
2022-09-21T20:19:40.509Z,1.30
2022-09-21T20:22:13.523Z,0.82
2022-09-21T20:24:55.632Z,0.93
2022-09-21T20:27:29.123Z,0.80
2022-09-21T20:29:59.337Z,1.15
2022-09-21T20:32:29.244Z,0.98
2022-09-21T20:34:58.924Z,1.33
2022-09-21T20:37:28.991Z,1.80
2022-09-21T20:39:58.931Z,1.00
2022-09-21T20:42:28.721Z,0.90
2022-09-21T20:44:58.632Z,1.05
2022-09-21T20:47:30.287Z,1.02
2022-09-21T20:50:00.306Z,1.40
2022-09-21T20:52:30.063Z,0.70
2022-09-21T20:55:00.027Z,1.23
2022-09-21T20:57:29.741Z,1.45
2022-09-21T20:59:59.414Z,1.33
2022-09-21T21:02:29.470Z,1.48
2022-09-21T21:04:59.239Z,1.73
2022-09-21T21:07:30.717Z,1.95
2022-09-21T21:10:00.581Z,1.00
2022-09-21T21:12:30.176Z,1.35
2022-09-21T21:15:00.528Z,1.23
2022-09-21T21:17:30.192Z,2.22
2022-09-21T21:20:00.032Z,1.67
2022-09-21T21:22:29.820Z,2.85
2022-09-21T21:24:59.466Z,1.25
2022-09-21T21:27:29.574Z,1.33
2022-09-21T21:29:59.863Z,1.60
2022-09-21T21:32:29.928Z,1.85
2022-09-21T21:34:59.525Z,1.23
2022-09-21T21:37:29.405Z,1.45
2022-09-21T21:40:00.035Z,1.50
2022-09-21T21:42:30.037Z,1.90
2022-09-21T21:44:59.817Z,1.60
2022-09-21T21:47:39.775Z,3.25
2022-09-21T21:50:10.785Z,2.47
2022-09-21T21:52:40.824Z,2.03
2022-09-21T21:55:11.640Z,2.10
2022-09-21T21:57:41.466Z,1.70
2022-09-21T22:00:11.632Z,1.52
2022-09-21T22:02:41.635Z,1.92
2022-09-21T22:05:12.237Z,1.40
2022-09-21T22:07:42.656Z,1.90
2022-09-21T22:10:12.459Z,1.48
2022-09-21T22:12:42.394Z,1.58
2022-09-21T22:15:12.322Z,1.95
2022-09-21T22:17:42.559Z,1.40
2022-09-21T22:20:12.609Z,1.65
2022-09-21T22:22:42.347Z,1.75
2022-09-21T22:25:12.542Z,1.27
2022-09-21T22:27:42.367Z,1.90
2022-09-21T22:30:12.191Z,1.60
2022-09-21T22:32:42.203Z,2.00
2022-09-21T22:35:11.952Z,1.88
2022-09-21T22:37:41.884Z,2.70
2022-09-21T22:40:11.995Z,1.90
2022-09-21T22:42:41.878Z,2.08
2022-09-21T22:45:11.899Z,2.10
2022-09-21T22:47:43.014Z,2.28
2022-09-21T22:50:12.812Z,2.42
2022-09-21T22:52:42.825Z,1.95
2022-09-21T22:55:12.587Z,2.53
2022-09-21T22:57:42.544Z,2.50
2022-09-21T23:00:12.651Z,2.92
2022-09-21T23:02:45.004Z,2.90
2022-09-21T23:05:14.718Z,2.63
2022-09-21T23:07:44.469Z,3.33
2022-09-21T23:10:15.511Z,3.88
2022-09-21T23:12:45.243Z,3.42
2022-09-21T23:15:16.538Z,3.10
2022-09-21T23:17:46.363Z,3.03
2022-09-21T23:20:17.422Z,3.50
2022-09-21T23:22:47.165Z,2.60
2022-09-21T23:25:16.818Z,3.00
2022-09-21T23:27:46.685Z,2.25
2022-09-21T23:30:16.420Z,2.80
2022-09-21T23:32:46.632Z,3.08
2022-09-21T23:35:16.584Z,2.70
2022-09-21T23:37:46.438Z,2.40
2022-09-21T23:40:16.365Z,2.40
2022-09-21T23:42:46.182Z,2.42
2022-09-21T23:45:15.939Z,2.63
2022-09-21T23:47:45.861Z,2.30
2022-09-21T23:50:15.764Z,2.30
2022-09-21T23:52:45.559Z,2.58
2022-09-21T23:55:15.438Z,2.53
2022-09-21T23:57:45.152Z,1.67
